Time;durP1;ratioP1;P1;durP2;ratioP2;P2;SDS_P1;SDS_P2;PMS_P1;PMS_P2;Temp;Humidity;BMP_temperature;BMP_pressure;BME280_temperature;BME280_humidity;BME280_pressure;Samples;Min_cycle;Max_cycle;Signal;HPM_P1;HPM_P2
2022/07/31 00:02:06;;;;;;;9.50;1.73;;;;;;;15.78;100.00;100994.03;5013239;28;20053;-87
2022/07/31 00:04:33;;;;;;;6.85;1.67;;;;;;;15.94;100.00;100990.44;5020121;28;20397;-86
2022/07/31 00:07:00;;;;;;;9.55;1.90;;;;;;;15.68;100.00;100977.78;5012192;28;20180;-87
2022/07/31 00:09:28;;;;;;;7.10;1.80;;;;;;;15.48;100.00;100916.41;5012351;28;20088;-85
2022/07/31 00:12:16;;;;;;;6.80;1.92;;;;;;;15.79;100.00;100970.16;5012711;28;20045;-85
2022/07/31 00:14:43;;;;;;;4.85;1.42;;;;;;;15.88;100.00;100972.31;5035631;28;20046;-85
2022/07/31 00:17:10;;;;;;;7.28;1.58;;;;;;;15.72;100.00;100971.41;5011913;28;20132;-85
2022/07/31 00:19:37;;;;;;;7.90;1.45;;;;;;;15.69;100.00;100974.22;5013199;28;20050;-85
2022/07/31 00:22:04;;;;;;;7.22;1.77;;;;;;;15.90;100.00;100988.91;5013206;28;20057;-85
2022/07/31 00:24:31;;;;;;;10.38;1.80;;;;;;;15.81;100.00;100980.63;5031216;28;20136;-86
2022/07/31 00:26:58;;;;;;;8.15;1.70;;;;;;;15.89;100.00;100973.16;4998288;28;20046;-85
2022/07/31 00:29:25;;;;;;;9.88;1.55;;;;;;;15.90;100.00;100998.59;5012222;28;20538;-85
2022/07/31 00:31:52;;;;;;;5.95;1.40;;;;;;;15.94;100.00;100985.16;5011566;28;20050;-86
2022/07/31 00:34:18;;;;;;;6.93;1.52;;;;;;;15.91;100.00;100995.88;5011879;28;20668;-85
2022/07/31 00:36:45;;;;;;;6.45;1.70;;;;;;;15.82;100.00;100985.84;5010820;28;20058;-85
2022/07/31 00:39:12;;;;;;;6.38;1.50;;;;;;;15.87;100.00;100982.94;5010988;28;20056;-86
2022/07/31 00:41:43;;;;;;;6.97;1.85;;;;;;;16.11;100.00;100996.53;5028709;28;20058;-85
2022/07/31 00:44:12;;;;;;;6.63;1.60;;;;;;;16.11;100.00;100994.78;5014015;28;20054;-86
2022/07/31 00:46:40;;;;;;;7.88;1.48;;;;;;;15.90;100.00;100983.63;5011682;28;20052;-86
2022/07/31 00:49:11;;;;;;;9.48;1.95;;;;;;;16.09;100.00;101001.06;5011045;28;20060;-85
2022/07/31 00:51:39;;;;;;;6.90;1.58;;;;;;;15.96;100.00;100992.16;5011651;28;20054;-85
2022/07/31 00:54:07;;;;;;;7.70;1.98;;;;;;;15.87;100.00;100993.50;5017902;28;20053;-85
2022/07/31 00:56:35;;;;;;;7.18;2.00;;;;;;;15.70;100.00;100992.59;5012403;28;20049;-85
2022/07/31 00:59:03;;;;;;;7.40;1.40;;;;;;;15.88;100.00;100992.56;5025543;28;20411;-86
2022/07/31 01:01:29;;;;;;;7.13;1.20;;;;;;;16.08;100.00;101000.22;5010865;28;20049;-86
2022/07/31 01:03:57;;;;;;;8.90;1.55;;;;;;;15.97;100.00;100978.84;5029966;28;20052;-86
2022/07/31 01:06:23;;;;;;;9.80;1.60;;;;;;;15.93;100.00;100980.78;5010892;28;20388;-86
2022/07/31 01:08:50;;;;;;;6.55;1.50;;;;;;;16.07;100.00;100987.09;5027318;28;20060;-86
2022/07/31 01:12:01;;;;;;;6.85;1.52;;;;;;;15.97;100.00;100959.50;5012444;28;20133;-86
2022/07/31 01:14:34;;;;;;;6.10;1.80;;;;;;;16.12;100.00;100991.19;5002890;28;20057;-86
2022/07/31 01:17:03;;;;;;;8.02;1.30;;;;;;;15.83;100.00;101000.75;5010668;28;20064;-86
2022/07/31 01:19:41;;;;;;;10.20;2.55;;;;;;;15.81;100.00;101004.38;5012188;28;20535;-86
2022/07/31 01:22:30;;;;;;;5.45;1.40;;;;;;;16.03;100.00;101004.06;5011305;28;20042;-86
2022/07/31 01:25:35;;;;;;;7.65;1.50;;;;;;;15.99;100.00;101011.31;5010264;28;20073;-86
2022/07/31 01:28:27;;;;;;;8.98;1.63;;;;;;;16.07;100.00;101005.59;4951230;28;20147;-86
2022/07/31 01:31:03;;;;;;;4.75;1.30;;;;;;;15.94;100.00;100998.34;4996605;28;20076;-86
2022/07/31 01:34:14;;;;;;;5.45;1.30;;;;;;;16.03;100.00;101002.28;5010878;28;20061;-85
2022/07/31 01:36:50;;;;;;;8.55;1.40;;;;;;;16.30;100.00;101006.91;5019229;28;20061;-85
2022/07/31 01:39:17;;;;;;;8.38;1.58;;;;;;;16.06;100.00;100999.47;5022010;28;20056;-85
2022/07/31 01:41:47;;;;;;;9.15;1.95;;;;;;;15.87;100.00;101001.44;5010167;28;20069;-86
2022/07/31 01:44:16;;;;;;;10.38;1.50;;;;;;;15.91;100.00;100995.88;5012878;28;20046;-86
2022/07/31 01:46:45;;;;;;;10.80;1.85;;;;;;;15.78;100.00;100978.19;5010462;28;20046;-86
2022/07/31 01:49:13;;;;;;;6.85;1.83;;;;;;;15.72;100.00;100972.28;5010859;28;20046;-86
2022/07/31 01:51:43;;;;;;;10.32;1.77;;;;;;;15.88;100.00;101000.47;5005287;28;20058;-86
2022/07/31 01:54:11;;;;;;;10.18;1.77;;;;;;;15.72;100.00;100998.66;5008131;28;20055;-86
2022/07/31 01:56:39;;;;;;;8.07;1.60;;;;;;;15.68;100.00;101004.19;5010815;28;20050;-86
2022/07/31 01:59:09;;;;;;;7.70;1.30;;;;;;;15.83;100.00;101013.06;5010673;28;20056;-86
2022/07/31 02:01:48;;;;;;;8.93;1.63;;;;;;;15.76;100.00;101004.66;5001914;28;20050;-86
2022/07/31 02:04:18;;;;;;;8.10;1.60;;;;;;;15.74;100.00;100996.81;5014264;28;20442;-86
2022/07/31 02:06:49;;;;;;;8.00;1.40;;;;;;;15.77;100.00;101008.16;5014481;28;20056;-86
2022/07/31 02:09:18;;;;;;;12.82;2.00;;;;;;;15.99;100.00;101013.06;5015101;28;20591;-86
2022/07/31 02:11:45;;;;;;;6.22;1.60;;;;;;;15.97;100.00;101013.19;5014841;28;20503;-86
2022/07/31 02:14:21;;;;;;;10.68;1.48;;;;;;;16.02;100.00;101013.75;5016398;28;20050;-86
2022/07/31 02:16:48;;;;;;;7.68;1.73;;;;;;;15.78;100.00;101002.78;5014978;28;20046;-86
2022/07/31 02:19:17;;;;;;;7.18;1.33;;;;;;;16.02;100.00;101008.47;5014614;28;20407;-86
2022/07/31 02:21:44;;;;;;;10.20;2.15;;;;;;;16.06;100.00;101007.38;5014795;28;20053;-86
2022/07/31 02:24:11;;;;;;;6.55;1.45;;;;;;;16.13;100.00;101003.47;5019838;28;20505;-86
2022/07/31 02:26:39;;;;;;;8.10;1.83;;;;;;;15.93;100.00;100999.28;5034060;28;20638;-87
2022/07/31 02:29:07;;;;;;;8.60;1.77;;;;;;;16.07;100.00;101001.16;5014555;28;20399;-86
2022/07/31 02:31:47;;;;;;;8.80;2.40;;;;;;;16.13;100.00;101014.03;5015437;28;20136;-85
2022/07/31 02:34:30;;;;;;;11.82;2.30;;;;;;;15.88;100.00;100998.72;5013361;28;20496;-85
2022/07/31 02:36:59;;;;;;;8.27;1.40;;;;;;;15.83;100.00;100976.13;5013940;28;20060;-85
2022/07/31 02:39:27;;;;;;;8.18;1.52;;;;;;;15.85;100.00;100974.25;5013709;28;20052;-86
2022/07/31 02:41:59;;;;;;;5.43;2.08;;;;;;;15.79;100.00;100969.31;5014332;28;20053;-86
2022/07/31 02:44:30;;;;;;;5.57;1.50;;;;;;;15.66;100.00;101006.91;5017532;28;20132;-86
2022/07/31 02:46:58;;;;;;;6.30;1.58;;;;;;;15.61;100.00;100981.72;5014714;28;20071;-86
2022/07/31 02:49:26;;;;;;;6.93;1.73;;;;;;;15.92;100.00;100988.81;5013278;28;20053;-86
2022/07/31 02:51:54;;;;;;;6.35;1.50;;;;;;;15.89;100.00;100970.50;5010472;28;20077;-86
2022/07/31 02:54:23;;;;;;;5.65;1.48;;;;;;;15.90;100.00;100988.03;5016024;28;20137;-86
2022/07/31 02:56:52;;;;;;;5.50;1.48;;;;;;;15.82;100.00;100993.75;5013577;28;20401;-86
2022/07/31 02:59:20;;;;;;;7.95;1.80;;;;;;;15.79;100.00;100993.06;5013633;28;20509;-86
2022/07/31 03:01:47;;;;;;;8.75;1.88;;;;;;;15.77;100.00;101000.22;5013240;28;20073;-86
2022/07/31 03:04:14;;;;;;;5.65;1.30;;;;;;;15.79;100.00;100993.06;5019590;28;20056;-86
2022/07/31 03:06:42;;;;;;;7.05;1.35;;;;;;;15.63;100.00;100999.16;5018869;28;20050;-86
2022/07/31 03:09:09;;;;;;;7.95;1.88;;;;;;;15.76;100.00;100999.38;5013042;28;20057;-86
2022/07/31 03:11:36;;;;;;;4.63;1.13;;;;;;;15.79;100.00;101017.69;5014350;28;20415;-85
2022/07/31 03:14:04;;;;;;;5.50;1.25;;;;;;;15.62;100.00;101001.91;5016898;28;20576;-86
2022/07/31 03:16:32;;;;;;;5.65;1.42;;;;;;;15.91;100.00;100998.50;5030070;28;20050;-86
2022/07/31 03:19:00;;;;;;;8.38;1.83;;;;;;;15.65;100.00;100993.78;5014790;28;20045;-85
2022/07/31 03:21:28;;;;;;;7.18;1.50;;;;;;;15.81;100.00;100992.06;5013090;28;20056;-86
2022/07/31 03:23:55;;;;;;;7.68;1.52;;;;;;;15.75;100.00;100987.09;5014130;28;20132;-86
2022/07/31 03:26:22;;;;;;;6.82;1.67;;;;;;;15.82;100.00;101012.22;5012882;28;20046;-87
2022/07/31 03:28:48;;;;;;;6.38;1.48;;;;;;;15.82;100.00;101006.94;5004407;28;20054;-86
2022/07/31 03:31:15;;;;;;;5.25;1.40;;;;;;;15.96;100.00;101000.91;5019200;28;20056;-86
2022/07/31 03:33:42;;;;;;;8.02;1.50;;;;;;;15.80;100.00;101006.19;5003919;28;20537;-86
2022/07/31 03:36:09;;;;;;;7.18;1.63;;;;;;;15.85;100.00;100998.88;5011643;28;20042;-86
2022/07/31 03:38:36;;;;;;;5.28;1.25;;;;;;;16.00;100.00;101018.28;5012464;28;20050;-85
2022/07/31 03:41:09;;;;;;;16.70;1.92;;;;;;;15.87;100.00;101014.63;5011094;28;20076;-86
2022/07/31 03:43:37;;;;;;;5.65;1.55;;;;;;;15.78;100.00;101020.44;5019947;28;20050;-86
2022/07/31 03:46:16;;;;;;;3.78;1.35;;;;;;;15.74;100.00;100999.47;5030620;28;20050;-86
2022/07/31 03:48:43;;;;;;;6.20;1.63;;;;;;;15.87;100.00;101025.19;5012949;28;20065;-85
2022/07/31 03:51:12;;;;;;;7.68;1.60;;;;;;;15.91;100.00;101011.72;5013221;28;20046;-86
2022/07/31 03:53:39;;;;;;;10.02;1.77;;;;;;;15.78;100.00;101018.63;5011682;28;20133;-86
2022/07/31 03:56:06;;;;;;;11.55;2.08;;;;;;;15.83;100.00;101023.63;5012598;28;20056;-86
2022/07/31 03:58:33;;;;;;;8.43;1.73;;;;;;;15.69;100.00;101014.66;5012119;28;20073;-86
2022/07/31 04:01:04;;;;;;;9.98;2.00;;;;;;;15.70;100.00;101010.22;5013659;28;20049;-86
2022/07/31 04:03:35;;;;;;;5.43;1.50;;;;;;;15.60;100.00;100998.47;5014827;28;20435;-86
2022/07/31 04:06:02;;;;;;;7.97;1.83;;;;;;;14.99;100.00;100961.25;5014818;28;20404;-86
2022/07/31 04:08:29;;;;;;;7.88;1.75;;;;;;;15.47;100.00;100978.03;5012292;28;20052;-86
2022/07/31 04:10:55;;;;;;;6.53;1.40;;;;;;;15.46;100.00;100976.34;5013452;28;20060;-86
2022/07/31 04:13:22;;;;;;;6.90;1.40;;;;;;;15.35;100.00;100962.84;5010847;28;20400;-86
2022/07/31 04:15:49;;;;;;;9.43;1.42;;;;;;;15.47;100.00;101022.03;5012194;28;20054;-86
2022/07/31 04:18:16;;;;;;;5.88;1.40;;;;;;;15.63;100.00;101024.69;5014860;28;20046;-86
2022/07/31 04:20:42;;;;;;;10.57;1.77;;;;;;;15.66;100.00;101014.81;5013125;28;20049;-86
2022/07/31 04:23:09;;;;;;;10.73;1.95;;;;;;;15.32;100.00;101021.91;5009550;28;20053;-86
2022/07/31 04:25:38;;;;;;;7.90;1.63;;;;;;;15.54;100.00;101023.41;5020051;28;20056;-86
2022/07/31 04:28:04;;;;;;;6.82;1.65;;;;;;;15.63;100.00;101029.97;5011590;28;20053;-86
2022/07/31 04:30:31;;;;;;;6.47;1.58;;;;;;;15.68;100.00;101034.06;5012142;28;20054;-86
2022/07/31 04:32:58;;;;;;;6.45;1.55;;;;;;;15.40;100.00;101002.19;5012134;28;20046;-85
2022/07/31 04:35:25;;;;;;;4.55;1.50;;;;;;;15.55;100.00;101001.38;5014587;28;20472;-86
2022/07/31 04:37:52;;;;;;;8.60;1.65;;;;;;;15.39;100.00;100993.44;5004921;28;20057;-86
2022/07/31 04:40:18;;;;;;;10.00;1.85;;;;;;;15.51;100.00;101007.72;5011034;28;20052;-86
2022/07/31 04:42:45;;;;;;;10.00;1.63;;;;;;;15.54;100.00;101015.50;5011751;28;20050;-86
2022/07/31 04:45:12;;;;;;;8.50;1.63;;;;;;;15.52;100.00;101014.72;5023793;28;20054;-85
2022/07/31 04:47:38;;;;;;;6.32;1.58;;;;;;;15.69;100.00;101037.59;5011237;28;20038;-86
2022/07/31 04:50:06;;;;;;;6.88;1.55;;;;;;;15.46;100.00;101033.53;5009307;28;20046;-86
2022/07/31 04:52:33;;;;;;;8.27;2.13;;;;;;;15.37;100.00;101034.88;5010924;28;20046;-86
2022/07/31 04:55:00;;;;;;;9.75;2.03;;;;;;;15.49;100.00;101051.81;5013319;28;20057;-86
2022/07/31 04:57:27;;;;;;;8.02;1.65;;;;;;;15.62;100.00;101036.22;5027526;28;20080;-86
2022/07/31 04:59:54;;;;;;;6.68;1.42;;;;;;;15.54;100.00;101023.41;5021886;28;20058;-86
2022/07/31 05:02:25;;;;;;;13.02;1.65;;;;;;;15.71;100.00;101030.44;5010266;28;20412;-86
2022/07/31 05:04:53;;;;;;;6.68;1.58;;;;;;;15.64;100.00;101036.97;5004711;28;20050;-86
2022/07/31 05:07:24;;;;;;;6.70;1.58;;;;;;;15.68;100.00;101043.78;5006151;28;20045;-85
2022/07/31 05:09:55;;;;;;;9.07;1.50;;;;;;;15.67;100.00;101036.78;5010785;28;20455;-85
2022/07/31 05:12:21;;;;;;;8.90;1.92;;;;;;;15.46;100.00;101039.66;5011356;28;20504;-86
2022/07/31 05:14:48;;;;;;;8.88;1.63;;;;;;;15.32;100.00;101029.84;5010435;28;20041;-85
2022/07/31 05:17:15;;;;;;;6.78;1.60;;;;;;;15.42;100.00;101040.75;5012352;28;20045;-85
2022/07/31 05:19:41;;;;;;;6.38;1.55;;;;;;;15.43;100.00;101055.66;5010767;28;20052;-85
2022/07/31 05:22:10;;;;;;;6.40;2.10;;;;;;;15.35;100.00;101034.09;5010952;28;20049;-85
2022/07/31 05:24:37;;;;;;;6.47;1.83;;;;;;;15.58;100.00;101053.97;5014181;28;20081;-86
2022/07/31 05:27:03;;;;;;;6.95;1.60;;;;;;;15.56;100.00;101067.28;5019864;28;20041;-86
2022/07/31 05:29:31;;;;;;;7.88;1.83;;;;;;;15.30;100.00;101055.44;5011845;28;20518;-86
2022/07/31 05:31:59;;;;;;;7.32;1.80;;;;;;;15.47;100.00;101062.47;5010801;28;20046;-87
2022/07/31 05:34:30;;;;;;;15.85;2.03;;;;;;;15.48;100.00;101069.47;5012395;28;20053;-86
2022/07/31 05:37:00;;;;;;;6.78;1.40;;;;;;;15.39;100.00;101064.66;5009858;28;20042;-86
2022/07/31 05:39:28;;;;;;;10.27;1.83;;;;;;;15.22;100.00;101041.78;5012223;28;20049;-86
2022/07/31 05:41:54;;;;;;;10.60;1.98;;;;;;;15.26;100.00;101051.25;5040313;28;20056;-85
2022/07/31 05:44:21;;;;;;;7.35;1.50;;;;;;;15.15;100.00;101037.78;5010561;28;20076;-86
2022/07/31 05:46:48;;;;;;;8.55;1.75;;;;;;;15.26;100.00;101069.72;5011819;28;20044;-86
2022/07/31 05:49:14;;;;;;;9.50;1.92;;;;;;;15.18;100.00;101077.19;5010728;28;20045;-86
2022/07/31 05:51:45;;;;;;;11.15;2.45;;;;;;;15.13;100.00;101082.69;5010105;28;20054;-86
2022/07/31 05:54:13;;;;;;;9.63;1.95;;;;;;;15.08;100.00;101082.06;5012658;28;20053;-84
2022/07/31 05:56:39;;;;;;;12.77;1.80;;;;;;;14.95;100.00;101081.84;5026839;28;20088;-86
2022/07/31 05:59:06;;;;;;;15.85;2.55;;;;;;;14.80;100.00;101088.75;5016384;28;20050;-85
2022/07/31 06:01:33;;;;;;;11.30;2.67;;;;;;;14.54;100.00;101079.44;5010691;28;20046;-86
2022/07/31 06:04:01;;;;;;;13.77;2.50;;;;;;;14.52;100.00;101067.25;5012563;28;20129;-86
2022/07/31 06:06:28;;;;;;;12.93;2.22;;;;;;;14.84;100.00;101080.66;5010422;28;20679;-86
2022/07/31 06:08:54;;;;;;;11.13;2.10;;;;;;;14.54;100.00;101070.69;5010349;28;20053;-86
2022/07/31 06:11:28;;;;;;;11.80;1.98;;;;;;;14.86;100.00;101079.69;5010847;28;20538;-86
2022/07/31 06:13:55;;;;;;;13.27;3.10;;;;;;;14.74;100.00;101078.50;5014318;28;20050;-86
2022/07/31 06:16:22;;;;;;;11.52;2.03;;;;;;;14.70;100.00;101079.59;5010488;28;20050;-85
2022/07/31 06:18:49;;;;;;;7.65;1.92;;;;;;;14.64;100.00;101085.13;5010720;28;20060;-85
2022/07/31 06:21:16;;;;;;;8.23;2.05;;;;;;;14.53;100.00;101068.97;5010853;28;20068;-86
2022/07/31 06:23:42;;;;;;;13.32;2.15;;;;;;;14.27;100.00;101071.09;5015373;28;20535;-86
2022/07/31 06:26:10;;;;;;;8.00;1.95;;;;;;;14.30;100.00;101113.06;5015584;28;20104;-86
2022/07/31 06:28:37;;;;;;;10.32;2.13;;;;;;;14.17;100.00;101090.91;5012157;28;20084;-86
2022/07/31 06:31:18;;;;;;;12.88;2.45;;;;;;;14.02;100.00;101048.56;5011154;28;20446;-87
2022/07/31 06:33:46;;;;;;;9.02;2.05;;;;;;;14.39;100.00;101078.38;5023100;28;20464;-85
2022/07/31 06:36:15;;;;;;;7.90;2.08;;;;;;;14.48;100.00;101095.53;5008134;28;20045;-86
2022/07/31 06:38:41;;;;;;;8.57;1.77;;;;;;;14.48;100.00;101087.63;5015102;28;20055;-84
2022/07/31 06:41:08;;;;;;;6.55;1.30;;;;;;;14.38;100.00;101060.91;5022007;28;20046;-86
2022/07/31 06:43:35;;;;;;;10.43;2.20;;;;;;;14.44;100.00;101059.75;5007394;28;20049;-86
2022/07/31 06:46:02;;;;;;;10.93;2.60;;;;;;;14.43;100.00;101095.78;5008919;28;20065;-86
2022/07/31 06:48:29;;;;;;;11.00;1.85;;;;;;;14.05;100.00;101105.47;5008872;28;20049;-85
2022/07/31 06:50:56;;;;;;;9.68;1.98;;;;;;;13.94;100.00;101095.44;5002495;28;20498;-86
2022/07/31 06:53:48;;;;;;;7.90;1.80;;;;;;;13.97;100.00;101100.56;5015606;28;20049;-86
2022/07/31 06:56:15;;;;;;;7.53;1.70;;;;;;;13.43;100.00;101079.28;5017275;28;20052;-87
2022/07/31 06:58:45;;;;;;;5.10;1.40;;;;;;;13.99;100.00;101106.63;5001842;28;20046;-86
2022/07/31 07:01:11;;;;;;;5.63;1.40;;;;;;;13.86;100.00;101115.97;5007610;28;20054;-85
2022/07/31 07:03:39;;;;;;;4.32;1.20;;;;;;;13.58;100.00;101067.25;5010460;28;20132;-85
2022/07/31 07:06:06;;;;;;;4.80;1.40;;;;;;;14.53;100.00;101124.31;5012066;28;20049;-85
2022/07/31 07:08:35;;;;;;;5.43;1.63;;;;;;;14.44;100.00;101108.00;5008815;28;20049;-86
2022/07/31 07:11:02;;;;;;;6.32;1.45;;;;;;;14.35;100.00;101110.25;5020382;28;20052;-86
2022/07/31 07:13:29;;;;;;;6.18;1.60;;;;;;;14.33;100.00;101112.94;5014613;28;20141;-86
2022/07/31 07:16:13;;;;;;;10.32;1.75;;;;;;;14.66;100.00;101121.97;5009050;28;20076;-86
2022/07/31 07:18:40;;;;;;;4.85;1.63;;;;;;;14.44;100.00;101101.88;5012548;28;20085;-86
2022/07/31 07:21:06;;;;;;;5.82;1.48;;;;;;;14.26;100.00;101060.66;5024687;28;20129;-86
2022/07/31 07:23:34;;;;;;;7.63;1.75;;;;;;;14.41;100.00;101102.03;5018301;28;20049;-85
2022/07/31 07:26:01;;;;;;;6.28;1.70;;;;;;;14.68;100.00;101068.28;5010515;28;20129;-86
2022/07/31 07:28:28;;;;;;;5.72;1.77;;;;;;;15.02;100.00;101089.47;5005981;28;20517;-86
2022/07/31 07:30:56;;;;;;;5.60;1.58;;;;;;;15.00;100.00;101055.25;5004025;28;20057;-87
2022/07/31 07:33:23;;;;;;;10.93;2.03;;;;;;;15.43;100.00;101078.56;5010606;28;20049;-86
2022/07/31 07:36:09;;;;;;;8.35;1.90;;;;;;;15.66;100.00;101099.28;5036553;28;20060;-86
2022/07/31 07:38:52;;;;;;;11.23;1.98;;;;;;;15.50;100.00;101090.50;5010740;28;20544;-87
2022/07/31 07:41:20;;;;;;;8.23;1.65;;;;;;;15.82;100.00;101098.50;5002857;28;20064;-87
2022/07/31 07:43:47;;;;;;;7.63;1.60;;;;;;;15.80;100.00;101072.19;5012596;28;20056;-84
2022/07/31 07:46:17;;;;;;;7.82;1.50;;;;;;;15.77;100.00;101088.19;5009583;28;20436;-86
2022/07/31 07:48:44;;;;;;;7.90;2.15;;;;;;;16.04;100.00;101088.50;5009296;28;20645;-87
2022/07/31 07:51:11;;;;;;;7.13;1.60;;;;;;;16.04;100.00;101062.09;5014319;28;20046;-87
2022/07/31 07:53:47;;;;;;;6.75;1.55;;;;;;;16.33;100.00;101076.28;5020404;28;20064;-88
2022/07/31 07:56:25;;;;;;;8.77;1.58;;;;;;;16.60;100.00;101106.53;5000595;28;20093;-88
2022/07/31 07:58:52;;;;;;;8.13;1.75;;;;;;;16.73;100.00;101133.13;5012791;28;20057;-87
2022/07/31 08:01:20;;;;;;;6.50;1.35;;;;;;;16.66;100.00;101117.63;5012856;28;20053;-88
2022/07/31 08:03:49;;;;;;;5.63;1.35;;;;;;;16.65;100.00;101118.56;5018053;28;20053;-86
2022/07/31 08:06:22;;;;;;;11.65;1.90;;;;;;;16.33;100.00;101123.84;5012233;28;20077;-88
2022/07/31 08:08:50;;;;;;;9.13;1.80;;;;;;;15.96;100.00;101108.34;5013302;28;20049;-86
2022/07/31 08:11:17;;;;;;;9.05;1.70;;;;;;;15.94;100.00;101119.81;5013810;28;20042;-86
2022/07/31 08:13:45;;;;;;;7.13;1.52;;;;;;;16.06;100.00;101149.13;5011366;28;20515;-87
2022/07/31 08:16:19;;;;;;;9.23;2.20;;;;;;;16.20;100.00;101133.41;5013442;28;20042;-88
2022/07/31 08:18:46;;;;;;;9.48;1.63;;;;;;;16.01;100.00;101107.16;5005817;28;20292;-85
2022/07/31 08:21:14;;;;;;;7.30;1.77;;;;;;;16.26;100.00;101124.28;5011212;28;20054;-85
2022/07/31 08:23:41;;;;;;;9.05;1.95;;;;;;;16.16;100.00;101110.72;5031494;28;20490;-85
2022/07/31 08:26:08;;;;;;;8.35;1.83;;;;;;;16.11;100.00;101118.03;5014759;28;20054;-85
2022/07/31 08:28:35;;;;;;;15.73;2.80;;;;;;;15.98;100.00;101112.59;5011973;28;20045;-84
2022/07/31 08:31:02;;;;;;;9.23;2.35;;;;;;;16.89;100.00;101150.72;5016845;28;20430;-85
2022/07/31 08:33:29;;;;;;;10.63;2.10;;;;;;;16.90;100.00;101109.25;5026726;28;20403;-85
2022/07/31 08:35:56;;;;;;;6.78;1.83;;;;;;;16.78;100.00;101123.13;5013606;28;20145;-85
2022/07/31 08:38:22;;;;;;;9.48;1.65;;;;;;;16.22;100.00;101091.91;5022198;28;20404;-85
2022/07/31 08:40:50;;;;;;;9.15;1.73;;;;;;;17.11;100.00;101151.25;5013859;28;20129;-85
2022/07/31 08:43:17;;;;;;;7.75;2.00;;;;;;;16.44;100.00;101109.19;5014487;28;20068;-85
2022/07/31 08:46:10;;;;;;;8.10;2.33;;;;;;;16.67;100.00;101127.25;5011568;28;20054;-85
2022/07/31 08:48:47;;;;;;;8.93;2.00;;;;;;;16.82;100.00;101140.53;4999611;28;20125;-86
2022/07/31 08:51:20;;;;;;;8.52;1.80;;;;;;;16.44;100.00;101061.63;5003570;28;20468;-85
2022/07/31 08:53:55;;;;;;;14.00;2.25;;;;;;;16.84;100.00;101165.16;5025031;28;20052;-86
2022/07/31 08:56:24;;;;;;;9.48;1.70;;;;;;;16.63;100.00;101106.38;5002929;28;20061;-86
2022/07/31 08:58:51;;;;;;;16.35;2.92;;;;;;;16.78;100.00;101157.50;5007261;28;20056;-85
2022/07/31 09:01:18;;;;;;;8.60;2.00;;;;;;;16.30;100.00;101110.81;5008955;28;20081;-86
2022/07/31 09:03:46;;;;;;;9.23;1.77;;;;;;;16.63;100.00;101130.16;5013581;28;20088;-86
2022/07/31 09:06:14;;;;;;;9.65;1.77;;;;;;;17.02;100.00;101181.75;5013384;28;20060;-86
2022/07/31 09:08:41;;;;;;;7.18;1.70;;;;;;;17.09;100.00;101148.69;5016169;28;20606;-86
2022/07/31 09:11:12;;;;;;;9.27;2.00;;;;;;;16.67;100.00;101145.75;5011738;28;20058;-85
2022/07/31 09:13:50;;;;;;;8.57;2.10;;;;;;;16.20;100.00;101120.22;5015407;28;20632;-85
2022/07/31 09:16:28;;;;;;;6.65;1.58;;;;;;;16.38;100.00;101085.75;5016838;28;20065;-85
2022/07/31 09:19:02;;;;;;;6.40;1.50;;;;;;;16.92;100.00;101123.22;5005757;28;20077;-85
2022/07/31 09:21:49;;;;;;;8.13;1.65;;;;;;;16.97;100.00;101117.69;4999427;28;20112;-85
2022/07/31 09:24:28;;;;;;;6.63;1.48;;;;;;;17.15;100.00;101163.34;5011097;28;20045;-85
2022/07/31 09:27:06;;;;;;;8.00;1.50;;;;;;;17.22;100.00;101154.97;5001980;28;20042;-85
2022/07/31 09:30:01;;;;;;;6.18;1.70;;;;;;;17.27;100.00;101176.72;5011230;28;20412;-84
2022/07/31 09:32:28;;;;;;;6.65;1.55;;;;;;;17.39;100.00;101140.75;5002472;28;20487;-85
2022/07/31 09:35:05;;;;;;;10.27;2.08;;;;;;;17.74;100.00;101105.97;5013654;28;20054;-84
2022/07/31 09:37:33;;;;;;;6.80;2.00;;;;;;;17.56;100.00;101107.09;5019498;28;20136;-85
2022/07/31 09:40:03;;;;;;;11.20;1.92;;;;;;;17.69;100.00;101163.66;5011020;28;20050;-85
2022/07/31 09:42:42;;;;;;;12.65;1.52;;;;;;;17.97;100.00;101186.72;5002648;28;20054;-86
2022/07/31 09:45:23;;;;;;;6.55;1.60;;;;;;;17.89;100.00;101183.66;5020407;28;20050;-85
2022/07/31 09:48:08;;;;;;;6.25;1.48;;;;;;;17.92;97.24;101153.47;5016851;28;20041;-85
2022/07/31 09:50:52;;;;;;;9.50;1.98;;;;;;;17.57;92.65;101127.34;5006861;28;20072;-85
2022/07/31 09:53:19;;;;;;;7.72;1.70;;;;;;;17.42;100.00;101055.00;5004059;28;20076;-85
2022/07/31 09:55:51;;;;;;;9.32;1.80;;;;;;;17.69;97.52;101116.00;5025334;28;20501;-85
2022/07/31 09:58:18;;;;;;;8.25;1.70;;;;;;;18.18;97.48;101170.41;5015690;28;20473;-85
2022/07/31 10:00:46;;;;;;;7.82;1.65;;;;;;;18.34;100.00;101135.81;5010136;28;20056;-86
2022/07/31 10:03:17;;;;;;;6.25;1.50;;;;;;;18.24;92.12;101106.44;5002275;28;20049;-85
2022/07/31 10:05:46;;;;;;;8.57;1.65;;;;;;;18.89;91.88;101165.91;5021212;28;20045;-86
2022/07/31 10:08:16;;;;;;;8.82;2.10;;;;;;;18.68;88.30;101176.94;5011438;28;20129;-85
2022/07/31 10:10:43;;;;;;;5.57;1.40;;;;;;;19.08;87.69;101186.78;5025393;28;20060;-85
2022/07/31 10:13:14;;;;;;;4.68;1.40;;;;;;;18.72;85.22;101145.78;5004596;28;20046;-85
2022/07/31 10:15:45;;;;;;;9.20;2.22;;;;;;;18.76;82.41;101153.41;5005272;28;20054;-86
2022/07/31 10:18:19;;;;;;;9.50;1.85;;;;;;;18.36;79.74;101113.59;5013998;28;20076;-85
2022/07/31 10:21:04;;;;;;;5.32;1.40;;;;;;;18.75;82.71;101130.50;5008839;28;20669;-84
2022/07/31 10:23:33;;;;;;;6.93;1.52;;;;;;;18.49;75.84;101121.59;5006291;28;20054;-85
2022/07/31 10:26:02;;;;;;;7.72;1.40;;;;;;;18.31;74.85;101136.00;5018104;28;20078;-84
2022/07/31 10:28:31;;;;;;;5.72;1.30;;;;;;;18.71;77.55;101144.06;5009789;28;20042;-86
2022/07/31 10:30:58;;;;;;;6.55;1.90;;;;;;;18.60;74.83;101165.97;5027208;28;20057;-85
2022/07/31 10:33:25;;;;;;;8.40;1.55;;;;;;;18.52;75.86;101139.97;5031150;28;20121;-85
2022/07/31 10:36:18;;;;;;;8.00;1.63;;;;;;;18.73;74.06;101152.75;5041570;28;20050;-86
2022/07/31 10:39:19;;;;;;;9.60;1.70;;;;;;;18.50;74.62;101196.69;5007983;28;20129;-86
2022/07/31 10:41:49;;;;;;;4.63;1.20;;;;;;;18.77;74.95;101197.56;5016859;28;20050;-85
2022/07/31 10:44:26;;;;;;;5.22;1.35;;;;;;;18.40;76.64;101148.72;5012934;28;20057;-85
2022/07/31 10:46:54;;;;;;;5.95;1.38;;;;;;;18.49;79.05;101139.31;5018379;28;20061;-86
2022/07/31 10:49:38;;;;;;;7.03;1.45;;;;;;;18.81;74.52;101152.28;5011233;28;20046;-85
2022/07/31 10:52:05;;;;;;;7.95;1.20;;;;;;;17.93;75.96;101062.47;5013993;28;20073;-85
2022/07/31 10:54:39;;;;;;;6.32;1.40;;;;;;;19.15;75.30;101202.19;5015144;28;20077;-86
2022/07/31 10:57:05;;;;;;;12.07;2.20;;;;;;;18.62;74.28;101166.72;5024757;28;20060;-86
2022/07/31 10:59:33;;;;;;;5.78;1.13;;;;;;;18.97;76.30;101167.09;5020166;28;20132;-85
2022/07/31 11:02:00;;;;;;;4.18;1.30;;;;;;;19.58;74.55;101184.31;5026663;28;20399;-86
2022/07/31 11:04:30;;;;;;;5.07;1.25;;;;;;;19.59;73.43;101168.28;5019015;28;20085;-86
2022/07/31 11:06:58;;;;;;;3.25;0.98;;;;;;;19.79;73.92;101152.78;5013094;28;20056;-86
2022/07/31 11:09:27;;;;;;;4.93;1.35;;;;;;;19.54;72.05;101154.47;5018481;28;20058;-86
2022/07/31 11:11:55;;;;;;;9.27;1.98;;;;;;;18.77;73.57;101141.88;5013665;28;20460;-86
2022/07/31 11:14:37;;;;;;;8.77;1.55;;;;;;;18.31;75.60;101128.06;5018799;28;20128;-85
2022/07/31 11:17:03;;;;;;;6.65;1.33;;;;;;;18.42;72.92;101130.91;5020151;28;20057;-86
2022/07/31 11:19:39;;;;;;;6.80;1.40;;;;;;;18.87;77.24;101157.19;5015962;28;20061;-86
2022/07/31 11:22:12;;;;;;;7.30;1.90;;;;;;;18.68;77.91;101173.44;5015141;28;20056;-86
2022/07/31 11:24:57;;;;;;;5.63;1.23;;;;;;;18.85;73.52;101161.75;5018608;28;20488;-86
2022/07/31 11:27:33;;;;;;;7.75;1.45;;;;;;;18.76;78.50;101171.97;5015159;28;20064;-86
2022/07/31 11:30:05;;;;;;;7.80;1.65;;;;;;;18.55;79.70;101144.22;5006742;28;20049;-85
2022/07/31 11:32:39;;;;;;;5.78;1.50;;;;;;;18.84;83.76;101187.44;5020177;28;20056;-86